Time;durP1;ratioP1;P1;durP2;ratioP2;P2;SDS_P1;SDS_P2;PMS_P1;PMS_P2;Temp;Humidity;BMP_temperature;BMP_pressure;BME280_temperature;BME280_humidity;BME280_pressure;Samples;Min_cycle;Max_cycle;Signal;HPM_P1;HPM_P2
2023/12/07 00:01:34;;;;;;;6.60;6.00;;;;;;;4.68;100.00;100696.63;5059071;28;20206;-75
2023/12/07 00:03:59;;;;;;;7.00;6.30;;;;;;;4.69;100.00;100698.31;5057794;28;20195;-76
2023/12/07 00:06:25;;;;;;;6.90;6.20;;;;;;;4.70;100.00;100702.63;5060281;28;20226;-75
2023/12/07 00:08:50;;;;;;;7.93;7.13;;;;;;;4.68;100.00;100691.50;5061198;28;20182;-75
2023/12/07 00:11:15;;;;;;;7.70;6.90;;;;;;;4.67;100.00;100696.56;5058700;28;20267;-75
2023/12/07 00:13:41;;;;;;;7.87;7.17;;;;;;;4.63;100.00;100694.75;5059098;28;20186;-76
2023/12/07 00:16:06;;;;;;;7.53;6.83;;;;;;;4.63;100.00;100697.31;5059398;28;20273;-76
2023/12/07 00:18:32;;;;;;;7.27;6.57;;;;;;;4.62;100.00;100698.16;5059872;28;21129;-75
2023/12/07 00:20:57;;;;;;;7.47;6.67;;;;;;;4.61;100.00;100704.16;5062415;28;20194;-76
2023/12/07 00:23:23;;;;;;;7.03;6.37;;;;;;;4.61;100.00;100705.00;5055920;28;20202;-77
2023/12/07 00:25:49;;;;;;;5.90;5.40;;;;;;;4.64;100.00;100701.63;5059864;28;20191;-76
2023/12/07 00:28:14;;;;;;;6.97;6.27;;;;;;;4.64;100.00;100704.19;5060507;28;20676;-77
2023/12/07 00:30:39;;;;;;;5.83;5.33;;;;;;;4.66;100.00;100705.09;5062130;28;20213;-76
2023/12/07 00:33:04;;;;;;;6.00;5.50;;;;;;;4.65;100.00;100699.13;5060678;28;20267;-76
2023/12/07 00:35:30;;;;;;;6.20;5.60;;;;;;;4.64;100.00;100709.31;5056358;28;20203;-76
2023/12/07 00:37:56;;;;;;;7.10;6.03;;;;;;;4.63;100.00;100712.72;5055760;28;20203;-75
2023/12/07 00:40:22;;;;;;;6.60;6.00;;;;;;;4.61;100.00;100702.44;5059641;28;20252;-75
2023/12/07 00:42:47;;;;;;;6.50;5.90;;;;;;;4.62;100.00;100706.72;5060140;28;20627;-75
2023/12/07 00:45:13;;;;;;;6.67;6.00;;;;;;;4.62;100.00;100716.97;5058144;28;20244;-76
2023/12/07 00:47:39;;;;;;;6.03;5.50;;;;;;;4.64;100.00;100719.56;5052556;28;20253;-75
2023/12/07 00:50:05;;;;;;;6.17;5.67;;;;;;;4.64;100.00;100720.44;5052315;28;20293;-76
2023/12/07 00:52:30;;;;;;;5.97;5.47;;;;;;;4.64;100.00;100722.13;5049869;28;20266;-76
2023/12/07 00:54:56;;;;;;;6.27;5.67;;;;;;;4.64;100.00;100725.59;5051406;28;20190;-77
2023/12/07 00:57:21;;;;;;;6.53;5.93;;;;;;;4.63;100.00;100718.72;5051330;28;20213;-76
2023/12/07 00:59:47;;;;;;;6.17;5.40;;;;;;;4.62;100.00;100721.22;5051935;28;20276;-76
2023/12/07 01:02:12;;;;;;;6.73;6.03;;;;;;;4.58;100.00;100707.47;5051729;28;21966;-76
2023/12/07 01:04:37;;;;;;;5.77;5.27;;;;;;;4.56;100.00;100711.72;5051709;28;20596;-75
2023/12/07 01:07:03;;;;;;;6.80;6.10;;;;;;;4.55;100.00;100718.53;5053024;28;20204;-76
2023/12/07 01:09:28;;;;;;;5.90;5.40;;;;;;;4.56;100.00;100722.84;5048785;28;20290;-76
2023/12/07 01:11:54;;;;;;;7.20;6.60;;;;;;;4.57;100.00;100727.13;5050691;28;20206;-76
2023/12/07 01:14:19;;;;;;;6.47;5.87;;;;;;;4.60;100.00;100730.63;5052070;28;20186;-76
2023/12/07 01:16:45;;;;;;;7.20;6.50;;;;;;;4.58;100.00;100734.00;5051549;28;20179;-75
2023/12/07 01:19:14;;;;;;;5.93;5.33;;;;;;;4.56;100.00;100733.09;5059402;28;20217;-75
2023/12/07 01:21:39;;;;;;;8.27;6.67;;;;;;;4.54;100.00;100731.31;5056826;28;20793;-75
2023/12/07 01:24:05;;;;;;;7.00;6.30;;;;;;;4.50;100.00;100734.66;5062701;28;20190;-74
2023/12/07 01:26:30;;;;;;;7.03;6.33;;;;;;;4.45;100.00;100734.56;5057843;28;20190;-75
2023/12/07 01:28:55;;;;;;;7.10;6.40;;;;;;;4.41;100.00;100736.16;5057636;28;20179;-77
2023/12/07 01:31:21;;;;;;;6.23;5.70;;;;;;;4.39;100.00;100737.81;5058040;28;20190;-75
2023/12/07 01:33:47;;;;;;;6.40;5.80;;;;;;;4.38;100.00;100742.91;5060251;28;20277;-76
2023/12/07 01:36:12;;;;;;;6.90;6.20;;;;;;;4.35;100.00;100736.03;5060949;28;20239;-76
2023/12/07 01:38:37;;;;;;;7.03;6.33;;;;;;;4.35;100.00;100735.16;5057960;28;20233;-75
2023/12/07 01:41:03;;;;;;;6.30;5.70;;;;;;;4.32;100.00;100738.50;5059109;28;21320;-76
2023/12/07 01:43:29;;;;;;;6.07;5.47;;;;;;;4.30;100.00;100735.03;5058279;28;20211;-75
2023/12/07 01:45:57;;;;;;;6.83;6.13;;;;;;;4.27;100.00;100740.97;5053523;28;20189;-75
2023/12/07 01:48:25;;;;;;;6.07;5.47;;;;;;;4.22;100.00;100739.97;5058859;28;20189;-75
2023/12/07 01:50:51;;;;;;;6.23;5.70;;;;;;;4.17;100.00;100741.56;5058711;28;20203;-77
2023/12/07 01:53:17;;;;;;;6.07;5.57;;;;;;;4.14;100.00;100735.50;5058206;28;20689;-75
2023/12/07 01:55:43;;;;;;;5.87;5.37;;;;;;;4.09;100.00;100733.69;5055856;28;20247;-75
2023/12/07 01:58:09;;;;;;;5.93;5.43;;;;;;;4.03;100.00;100731.00;5057110;28;20686;-76
2023/12/07 02:00:35;;;;;;;6.10;5.57;;;;;;;3.97;100.00;100734.25;5057959;28;20593;-75
2023/12/07 02:03:05;;;;;;;6.03;5.53;;;;;;;3.91;100.00;100728.13;5056441;28;20212;-77
2023/12/07 02:05:31;;;;;;;6.23;5.63;;;;;;;3.84;100.00;100731.34;5056969;28;21325;-75
2023/12/07 02:07:57;;;;;;;5.60;5.10;;;;;;;3.77;100.00;100728.63;5059916;28;20189;-76
2023/12/07 02:10:23;;;;;;;6.47;5.87;;;;;;;3.69;100.00;100726.69;5055773;28;20395;-75
2023/12/07 02:12:49;;;;;;;6.47;5.20;;;;;;;3.59;100.00;100728.16;5057151;28;20206;-75
2023/12/07 02:15:14;;;;;;;5.33;4.83;;;;;;;3.50;100.00;100724.50;5060438;28;20189;-76
2023/12/07 02:18:13;;;;;;;6.00;5.40;;;;;;;3.41;100.00;100726.81;5057591;28;20689;-75
2023/12/07 02:20:51;;;;;;;5.73;5.13;;;;;;;3.32;100.00;100724.88;5054154;28;20235;-75
2023/12/07 02:23:18;;;;;;;5.40;4.90;;;;;;;3.22;100.00;100719.44;5041216;28;20229;-74
2023/12/07 02:25:52;;;;;;;5.40;4.90;;;;;;;3.12;100.00;100713.19;5058218;28;20674;-76
2023/12/07 02:28:17;;;;;;;5.43;4.93;;;;;;;3.04;100.00;100715.53;5058301;28;20178;-76
2023/12/07 02:30:43;;;;;;;6.10;5.47;;;;;;;2.95;100.00;100721.25;5059906;28;20196;-76
2023/12/07 02:33:08;;;;;;;5.77;5.27;;;;;;;2.84;100.00;100722.63;5056861;28;20211;-78
2023/12/07 02:35:35;;;;;;;5.87;5.27;;;;;;;2.74;100.00;100730.03;5058551;28;20235;-76
2023/12/07 02:38:01;;;;;;;6.80;6.10;;;;;;;2.68;100.00;100729.00;5056726;28;20272;-76
2023/12/07 02:40:28;;;;;;;6.40;5.80;;;;;;;2.55;100.00;100732.84;5057146;28;20285;-74
2023/12/07 02:42:55;;;;;;;5.33;4.83;;;;;;;2.47;100.00;100741.97;5067025;28;20233;-75
2023/12/07 02:45:20;;;;;;;5.40;4.90;;;;;;;2.38;100.00;100738.28;5065920;28;20190;-76
2023/12/07 02:47:46;;;;;;;6.00;5.40;;;;;;;2.32;100.00;100735.56;5048749;28;20174;-77
2023/12/07 02:50:12;;;;;;;5.97;4.70;;;;;;;2.26;100.00;100743.00;5054628;28;20197;-75
2023/12/07 02:52:38;;;;;;;5.27;4.77;;;;;;;2.19;100.00;100741.94;5053924;28;20996;-75
2023/12/07 02:55:04;;;;;;;5.20;4.80;;;;;;;2.12;100.00;100745.09;5048949;28;20666;-76
2023/12/07 02:57:29;;;;;;;4.50;4.10;;;;;;;2.03;100.00;100738.03;5049672;28;20361;-76
2023/12/07 02:59:55;;;;;;;5.30;4.80;;;;;;;1.96;100.00;100741.19;5048149;28;20236;-77
2023/12/07 03:02:21;;;;;;;4.97;4.50;;;;;;;1.89;100.00;100734.16;5049637;28;20220;-74
2023/12/07 03:04:46;;;;;;;4.40;4.00;;;;;;;1.83;100.00;100739.91;5056152;28;20201;-75
2023/12/07 03:07:11;;;;;;;5.40;3.97;;;;;;;1.78;100.00;100738.88;5055272;28;20181;-76
2023/12/07 03:09:36;;;;;;;4.77;4.37;;;;;;;1.74;100.00;100742.16;5056525;28;20186;-76
2023/12/07 03:12:02;;;;;;;5.10;4.60;;;;;;;1.68;100.00;100738.56;5048921;28;20619;-77
2023/12/07 03:14:27;;;;;;;5.10;4.47;;;;;;;1.60;100.00;100745.09;5049638;28;20208;-77
2023/12/07 03:16:53;;;;;;;5.57;5.00;;;;;;;1.55;100.00;100746.59;5050602;28;20185;-77
2023/12/07 03:19:18;;;;;;;5.70;4.30;;;;;;;1.48;100.00;100750.63;5055366;28;20288;-75
2023/12/07 03:21:43;;;;;;;5.00;4.50;;;;;;;1.42;100.00;100746.97;5058752;28;20632;-77
2023/12/07 03:24:09;;;;;;;4.33;3.93;;;;;;;1.42;100.00;100750.41;5056445;28;20276;-75
2023/12/07 03:26:35;;;;;;;4.80;4.30;;;;;;;1.41;100.00;100753.78;5057437;28;20554;-76
2023/12/07 03:29:00;;;;;;;5.00;4.50;;;;;;;1.39;100.00;100757.06;5056866;28;20601;-75
2023/12/07 03:31:26;;;;;;;4.63;4.23;;;;;;;1.33;100.00;100750.06;5058549;28;20268;-75
2023/12/07 03:33:51;;;;;;;4.27;3.87;;;;;;;1.22;100.00;100757.31;5058606;28;20185;-75
2023/12/07 03:36:16;;;;;;;4.43;4.03;;;;;;;1.14;100.00;100758.72;5060573;28;20200;-75
2023/12/07 03:38:42;;;;;;;4.27;3.87;;;;;;;1.08;100.00;100755.94;5052682;28;20239;-75
2023/12/07 03:41:08;;;;;;;4.30;3.90;;;;;;;1.02;100.00;100771.88;5059461;28;20415;-77
2023/12/07 03:43:33;;;;;;;5.13;4.50;;;;;;;0.98;100.00;100772.59;5059249;28;20728;-76
2023/12/07 03:45:58;;;;;;;4.43;4.03;;;;;;;0.96;100.00;100771.66;5060219;28;20197;-75
2023/12/07 03:48:23;;;;;;;5.10;4.10;;;;;;;0.94;100.00;100761.41;5058253;28;20182;-76
2023/12/07 03:50:49;;;;;;;5.07;4.53;;;;;;;0.95;100.00;100770.78;5061628;28;20186;-75
2023/12/07 03:53:14;;;;;;;4.60;4.20;;;;;;;0.95;100.00;100762.28;5058199;28;20210;-75
2023/12/07 03:55:39;;;;;;;5.30;4.80;;;;;;;0.96;100.00;100771.66;5059498;28;20235;-75
2023/12/07 03:58:05;;;;;;;4.87;4.47;;;;;;;0.95;100.00;100769.94;5061171;28;20202;-75
2023/12/07 04:00:32;;;;;;;4.57;4.13;;;;;;;0.95;100.00;100780.97;5059658;28;20239;-75
2023/12/07 04:02:57;;;;;;;4.83;4.30;;;;;;;0.94;100.00;100779.22;5058352;28;20209;-76
2023/12/07 04:05:23;;;;;;;5.10;4.60;;;;;;;0.95;100.00;100767.38;5059409;28;20212;-76
2023/12/07 04:07:48;;;;;;;5.00;4.27;;;;;;;0.95;100.00;100768.22;5056623;28;20199;-76
2023/12/07 04:10:14;;;;;;;5.20;4.70;;;;;;;0.96;100.00;100775.06;5059263;28;20242;-77
2023/12/07 04:12:39;;;;;;;4.30;3.90;;;;;;;0.96;100.00;100772.53;5057876;28;20216;-76
2023/12/07 04:15:05;;;;;;;4.93;4.40;;;;;;;0.96;100.00;100775.06;5060585;28;20289;-75
2023/12/07 04:17:30;;;;;;;4.73;4.33;;;;;;;0.97;100.00;100778.50;5059024;28;20205;-75
2023/12/07 04:19:56;;;;;;;4.47;4.00;;;;;;;0.96;100.00;100772.53;5061140;28;20281;-76
2023/12/07 04:22:21;;;;;;;4.03;3.63;;;;;;;0.95;100.00;100770.78;5053348;28;20201;-75
2023/12/07 04:24:46;;;;;;;4.60;3.80;;;;;;;0.95;100.00;100770.78;5055764;28;20293;-76
2023/12/07 04:27:12;;;;;;;4.40;4.00;;;;;;;0.96;100.00;100775.06;5057998;28;20962;-76
2023/12/07 04:29:37;;;;;;;4.70;4.20;;;;;;;0.94;100.00;100770.75;5059916;28;20220;-75
2023/12/07 04:32:03;;;;;;;5.33;4.30;;;;;;;0.92;100.00;100768.09;5061261;28;20208;-76
2023/12/07 04:34:28;;;;;;;4.43;4.03;;;;;;;0.91;100.00;100772.34;5060314;28;20192;-75
2023/12/07 04:36:53;;;;;;;4.40;3.97;;;;;;;0.92;100.00;100775.75;5060082;28;20178;-75
2023/12/07 04:39:19;;;;;;;4.93;4.53;;;;;;;0.89;100.00;100770.56;5060242;28;20214;-75
2023/12/07 04:41:44;;;;;;;5.23;4.30;;;;;;;0.88;100.00;100773.91;5058949;28;20240;-76
2023/12/07 04:44:09;;;;;;;5.47;4.70;;;;;;;0.87;100.00;100773.03;5056741;28;20608;-76
2023/12/07 04:46:35;;;;;;;4.67;4.00;;;;;;;0.88;100.00;100773.91;5059476;28;20192;-76
2023/12/07 04:49:01;;;;;;;5.03;4.47;;;;;;;0.88;100.00;100774.78;5054862;28;20277;-76
2023/12/07 04:51:26;;;;;;;4.97;4.50;;;;;;;0.88;100.00;100781.56;5051862;28;20186;-77
2023/12/07 04:53:51;;;;;;;4.70;4.30;;;;;;;0.86;100.00;100778.09;5055288;28;21810;-75
2023/12/07 04:56:16;;;;;;;5.17;4.63;;;;;;;0.85;100.00;100777.19;5050850;28;20182;-77
2023/12/07 04:58:42;;;;;;;4.90;4.40;;;;;;;0.83;100.00;100783.06;5051924;28;20194;-75
2023/12/07 05:01:07;;;;;;;4.80;4.30;;;;;;;0.80;100.00;100785.47;5059232;28;20264;-76
2023/12/07 05:03:32;;;;;;;4.37;3.97;;;;;;;0.78;100.00;100787.97;5050578;28;20233;-76
2023/12/07 05:05:58;;;;;;;5.30;4.80;;;;;;;0.74;100.00;100778.47;5050374;28;20196;-76
2023/12/07 05:08:23;;;;;;;5.77;5.13;;;;;;;0.70;100.00;100787.69;5052381;28;21415;-77
2023/12/07 05:10:55;;;;;;;5.17;4.63;;;;;;;0.68;100.00;100778.25;5051231;28;20180;-77
2023/12/07 05:13:20;;;;;;;5.20;4.70;;;;;;;0.64;100.00;100774.69;5057106;28;20761;-75
2023/12/07 05:15:46;;;;;;;5.53;5.03;;;;;;;0.59;100.00;100771.97;5058465;28;20248;-75
2023/12/07 05:18:12;;;;;;;5.67;4.60;;;;;;;0.54;100.00;100772.59;5060637;28;20204;-76
2023/12/07 05:20:39;;;;;;;5.20;4.70;;;;;;;0.50;100.00;100771.63;5056160;28;20193;-75
2023/12/07 05:23:16;;;;;;;5.13;4.73;;;;;;;0.47;100.00;100768.94;5052085;28;20201;-76
2023/12/07 05:25:41;;;;;;;7.03;6.00;;;;;;;0.50;100.00;100766.53;5055226;28;20208;-75
2023/12/07 05:28:06;;;;;;;5.50;5.00;;;;;;;0.45;100.00;100768.00;5059411;28;20186;-76
2023/12/07 05:30:32;;;;;;;6.03;5.40;;;;;;;0.41;100.00;100767.03;5058456;28;20192;-75
2023/12/07 05:32:57;;;;;;;6.20;5.60;;;;;;;0.39;100.00;100762.66;5059814;28;21036;-76
2023/12/07 05:35:23;;;;;;;6.53;5.67;;;;;;;0.35;100.00;100761.66;5059313;28;20200;-76
2023/12/07 05:37:49;;;;;;;7.47;6.70;;;;;;;0.34;100.00;100759.94;5059372;28;20262;-76
2023/12/07 05:40:15;;;;;;;7.27;6.57;;;;;;;0.36;100.00;100768.50;5056651;28;20201;-75
2023/12/07 05:42:41;;;;;;;9.13;6.63;;;;;;;0.30;100.00;100764.03;5059679;28;20214;-75
2023/12/07 05:45:07;;;;;;;6.40;5.80;;;;;;;0.19;100.00;100770.38;5059322;28;20193;-75
2023/12/07 05:47:32;;;;;;;6.27;5.67;;;;;;;0.13;100.00;100780.28;5059130;28;21041;-76
2023/12/07 05:49:59;;;;;;;6.47;5.47;;;;;;;0.09;100.00;100779.31;5060380;28;20204;-75
2023/12/07 05:52:25;;;;;;;6.97;5.40;;;;;;;0.07;100.00;100780.06;5060428;28;20208;-76
2023/12/07 05:54:50;;;;;;;6.27;5.67;;;;;;;0.05;100.00;100779.97;5057149;28;20594;-75
2023/12/07 05:57:15;;;;;;;6.23;5.63;;;;;;;0.05;100.00;100782.50;5056479;28;20666;-76
2023/12/07 05:59:42;;;;;;;6.50;5.90;;;;;;;0.04;100.00;100782.47;5060572;28;20184;-76
2023/12/07 06:02:08;;;;;;;6.33;5.60;;;;;;;0.04;100.00;100780.78;5058643;28;20203;-75
2023/12/07 06:04:33;;;;;;;6.17;5.57;;;;;;;0.02;100.00;100778.97;5055294;28;20695;-75
2023/12/07 06:06:58;;;;;;;6.40;5.80;;;;;;;0.00;100.00;100784.03;5058747;28;20191;-77
2023/12/07 06:09:24;;;;;;;5.67;5.17;;;;;;;-0.01;100.00;100782.28;5059313;28;20292;-75
2023/12/07 06:11:49;;;;;;;6.43;5.70;;;;;;;-0.01;100.00;100785.69;5057329;28;20291;-76
2023/12/07 06:14:14;;;;;;;5.70;5.20;;;;;;;-0.02;100.00;100786.47;5057913;28;20250;-76
2023/12/07 06:16:40;;;;;;;6.27;5.67;;;;;;;-0.03;100.00;100786.44;5059017;28;20231;-76
2023/12/07 06:19:05;;;;;;;6.33;5.73;;;;;;;-0.04;100.00;100783.00;5058637;28;20706;-75
2023/12/07 06:21:31;;;;;;;6.57;5.30;;;;;;;-0.04;100.00;100787.22;5069581;28;20215;-75
2023/12/07 06:23:56;;;;;;;6.40;5.33;;;;;;;-0.06;100.00;100787.16;5058762;28;20207;-75
2023/12/07 06:26:21;;;;;;;6.57;5.73;;;;;;;-0.05;100.00;100788.88;5055459;28;20183;-75
2023/12/07 06:28:47;;;;;;;6.40;5.10;;;;;;;-0.05;100.00;100788.03;5061918;28;20236;-76
2023/12/07 06:31:14;;;;;;;5.70;5.10;;;;;;;-0.06;100.00;100791.38;5058582;28;20625;-75
2023/12/07 06:33:40;;;;;;;6.27;5.57;;;;;;;-0.08;100.00;100786.25;5054023;28;20521;-76
2023/12/07 06:36:06;;;;;;;5.63;4.97;;;;;;;-0.10;100.00;100787.84;5056921;28;20249;-76
2023/12/07 06:38:31;;;;;;;5.23;4.73;;;;;;;-0.11;100.00;100793.75;5056243;28;20235;-76
2023/12/07 06:40:57;;;;;;;5.97;5.37;;;;;;;-0.12;100.00;100789.44;5056128;28;20249;-76
2023/12/07 06:43:22;;;;;;;6.00;5.23;;;;;;;-0.15;100.00;100796.94;5055143;28;20215;-75
2023/12/07 06:45:48;;;;;;;5.80;5.13;;;;;;;-0.17;100.00;100788.38;5050828;28;20706;-76
2023/12/07 06:48:13;;;;;;;6.50;5.80;;;;;;;-0.21;100.00;100797.56;5049655;28;20187;-76
2023/12/07 06:50:39;;;;;;;6.33;5.73;;;;;;;-0.23;100.00;100790.66;5049487;28;20184;-75
2023/12/07 06:53:04;;;;;;;6.10;5.50;;;;;;;-0.24;100.00;100786.38;5048842;28;21468;-76
2023/12/07 06:55:29;;;;;;;5.90;5.30;;;;;;;-0.27;100.00;100779.47;5049381;28;20176;-75
2023/12/07 06:57:55;;;;;;;6.70;6.00;;;;;;;-0.27;100.00;100768.44;5051747;28;20204;-76
2023/12/07 07:00:21;;;;;;;6.87;6.07;;;;;;;-0.26;100.00;100771.03;5048399;28;20184;-77
2023/12/07 07:02:46;;;;;;;6.80;6.20;;;;;;;-0.25;100.00;100769.38;5049577;28;20213;-75
2023/12/07 07:05:11;;;;;;;6.97;6.27;;;;;;;-0.25;100.00;100762.59;5049483;28;20233;-76
2023/12/07 07:07:38;;;;;;;6.27;5.67;;;;;;;-0.24;100.00;100760.94;5052112;28;20330;-76
2023/12/07 07:10:03;;;;;;;6.63;5.90;;;;;;;-0.24;100.00;100773.66;5051945;28;20228;-76
2023/12/07 07:12:29;;;;;;;6.63;5.93;;;;;;;-0.24;100.00;100774.53;5061725;28;20246;-76
2023/12/07 07:14:55;;;;;;;8.13;7.30;;;;;;;-0.25;100.00;100774.47;5063619;28;20268;-76
2023/12/07 07:17:20;;;;;;;8.73;7.70;;;;;;;-0.27;100.00;100776.94;5059496;28;20195;-76
2023/12/07 07:19:45;;;;;;;8.43;7.63;;;;;;;-0.29;100.00;100781.06;5058509;28;20680;-77
2023/12/07 07:22:11;;;;;;;10.37;9.13;;;;;;;-0.31;100.00;100781.03;5061473;28;20216;-75
2023/12/07 07:24:36;;;;;;;9.47;8.40;;;;;;;-0.33;100.00;100780.09;5058888;28;20284;-75
2023/12/07 07:27:02;;;;;;;10.40;7.80;;;;;;;-0.30;100.00;100784.41;5056344;28;20287;-76
2023/12/07 07:29:28;;;;;;;10.83;9.33;;;;;;;-0.27;100.00;100778.63;5061191;28;20215;-76
2023/12/07 07:31:53;;;;;;;9.97;8.97;;;;;;;-0.28;100.00;100781.97;5060825;28;20308;-77
2023/12/07 07:34:19;;;;;;;8.97;8.13;;;;;;;-0.26;100.00;100791.38;5060599;28;20188;-77
2023/12/07 07:36:44;;;;;;;9.83;8.20;;;;;;;-0.24;100.00;100797.41;5061747;28;20216;-76
2023/12/07 07:39:09;;;;;;;9.57;8.37;;;;;;;-0.14;100.00;100801.22;5060287;28;20260;-77
2023/12/07 07:41:36;;;;;;;10.37;9.27;;;;;;;-0.05;100.00;100809.25;5062737;28;20198;-75
2023/12/07 07:44:02;;;;;;;9.00;8.17;;;;;;;0.01;100.00;100810.31;5059655;28;20196;-76
2023/12/07 07:46:27;;;;;;;10.13;9.13;;;;;;;0.04;100.00;100818.94;5062885;28;20613;-76
2023/12/07 07:48:52;;;;;;;10.23;8.50;;;;;;;0.13;100.00;100827.00;5063241;28;20188;-75
2023/12/07 07:51:18;;;;;;;13.70;9.10;;;;;;;0.20;100.00;100830.66;5058996;28;21852;-76
2023/12/07 07:53:43;;;;;;;8.90;8.00;;;;;;;0.26;100.00;100832.59;5062767;28;20238;-76
2023/12/07 07:56:09;;;;;;;9.83;8.37;;;;;;;0.29;100.00;100823.41;5063054;28;20188;-76
2023/12/07 07:58:35;;;;;;;8.37;7.60;;;;;;;0.32;100.00;100830.28;5060977;28;20221;-77
2023/12/07 08:01:00;;;;;;;8.27;7.00;;;;;;;0.35;100.00;100832.09;5060054;28;20200;-76
2023/12/07 08:03:25;;;;;;;7.33;6.63;;;;;;;0.32;100.00;100821.78;5059960;28;20211;-77
2023/12/07 08:05:51;;;;;;;8.23;7.37;;;;;;;0.34;100.00;100813.41;5061325;28;20247;-77
2023/12/07 08:08:16;;;;;;;7.60;6.90;;;;;;;0.38;100.00;100804.22;5059150;28;20963;-76
2023/12/07 08:10:42;;;;;;;8.30;7.37;;;;;;;0.44;100.00;100807.91;5058210;28;20876;-73
2023/12/07 08:13:07;;;;;;;7.90;6.80;;;;;;;0.52;100.00;100802.22;5061367;28;20295;-76
2023/12/07 08:15:33;;;;;;;8.00;7.00;;;;;;;0.54;100.00;100801.47;5058924;28;20195;-76
2023/12/07 08:17:59;;;;;;;10.87;7.57;;;;;;;0.65;100.00;100795.94;5059458;28;20239;-76
2023/12/07 08:20:24;;;;;;;7.20;6.50;;;;;;;0.71;100.00;100798.72;5061731;28;20237;-76
2023/12/07 08:22:50;;;;;;;10.03;8.00;;;;;;;0.76;100.00;100793.00;5059718;28;20205;-75
2023/12/07 08:25:17;;;;;;;9.37;7.63;;;;;;;0.79;100.00;100781.19;5060817;28;20971;-72
2023/12/07 08:27:44;;;;;;;8.77;7.30;;;;;;;0.89;100.00;100784.16;5054893;28;20184;-75
2023/12/07 08:30:10;;;;;;;8.03;7.23;;;;;;;0.93;100.00;100789.38;5059358;28;20193;-75
2023/12/07 08:32:36;;;;;;;7.37;6.67;;;;;;;0.98;100.00;100800.63;5059726;28;20275;-75
2023/12/07 08:35:02;;;;;;;8.17;7.37;;;;;;;1.16;100.00;100800.44;5059673;28;20186;-76
2023/12/07 08:37:28;;;;;;;8.40;7.43;;;;;;;1.22;100.00;100798.13;5061732;28;20594;-75
2023/12/07 08:39:54;;;;;;;8.73;7.80;;;;;;;1.23;100.00;100794.75;5061090;28;20261;-76
2023/12/07 08:42:19;;;;;;;8.83;8.03;;;;;;;1.31;100.00;100785.72;5060086;28;20201;-76
2023/12/07 08:44:44;;;;;;;9.17;8.27;;;;;;;1.46;100.00;100775.19;5060851;28;20185;-76
2023/12/07 08:47:10;;;;;;;8.70;7.90;;;;;;;1.54;100.00;100783.13;5059642;28;20188;-76
2023/12/07 08:49:35;;;;;;;9.13;8.30;;;;;;;1.65;100.00;100774.19;5058332;28;20196;-76
2023/12/07 08:52:02;;;;;;;9.67;8.50;;;;;;;1.80;100.00;100773.00;5073199;28;20301;-74
2023/12/07 08:54:28;;;;;;;10.10;8.57;;;;;;;1.77;100.00;100776.28;5067332;28;20705;-76
2023/12/07 08:56:53;;;;;;;9.63;8.67;;;;;;;1.71;100.00;100773.53;5062877;28;20210;-76
2023/12/07 08:59:18;;;;;;;10.03;9.03;;;;;;;1.68;100.00;100758.97;5059660;28;20767;-75
2023/12/07 09:02:17;;;;;;;10.23;8.83;;;;;;;1.67;100.00;100759.78;5061485;28;20288;-76
2023/12/07 09:04:42;;;;;;;9.77;8.77;;;;;;;1.66;100.00;100768.25;5057129;28;20647;-75
2023/12/07 09:07:09;;;;;;;9.83;8.93;;;;;;;1.68;100.00;100763.22;5060923;28;20198;-76
2023/12/07 09:09:35;;;;;;;9.07;8.23;;;;;;;1.78;100.00;100762.72;5061368;28;20182;-76
2023/12/07 09:12:00;;;;;;;9.30;7.90;;;;;;;1.86;100.00;100760.44;5058560;28;20209;-76
2023/12/07 09:14:26;;;;;;;8.80;7.90;;;;;;;1.97;100.00;100761.66;5060114;28;20178;-75
2023/12/07 09:16:51;;;;;;;8.40;7.60;;;;;;;2.09;100.00;100760.34;5059669;28;20189;-76
2023/12/07 09:19:17;;;;;;;8.70;7.90;;;;;;;2.18;100.00;100764.91;5059678;28;20210;-75
2023/12/07 09:21:42;;;;;;;9.27;8.37;;;;;;;2.28;100.00;100754.16;5058952;28;20186;-76
2023/12/07 09:24:08;;;;;;;11.00;9.30;;;;;;;2.37;100.00;100746.78;5059207;28;20197;-75
2023/12/07 09:26:33;;;;;;;10.20;9.10;;;;;;;2.38;100.00;100748.50;5060731;28;20194;-77
2023/12/07 09:28:59;;;;;;;9.07;8.13;;;;;;;2.43;100.00;100741.88;5060958;28;20217;-76
2023/12/07 09:31:24;;;;;;;10.70;9.63;;;;;;;2.46;100.00;100740.22;5058401;28;20208;-75
2023/12/07 09:33:49;;;;;;;10.23;9.23;;;;;;;2.46;100.00;100735.13;5061807;28;20189;-76
2023/12/07 09:36:18;;;;;;;8.43;7.63;;;;;;;2.52;100.00;100730.19;5062904;28;20186;-76
2023/12/07 09:38:44;;;;;;;11.17;9.50;;;;;;;2.57;100.00;100733.75;5064031;28;20263;-75
2023/12/07 09:41:11;;;;;;;12.23;11.00;;;;;;;2.61;100.00;100733.03;5062706;28;20178;-76
2023/12/07 09:43:36;;;;;;;14.20;11.07;;;;;;;2.63;100.00;100735.63;5061950;28;20206;-75
2023/12/07 09:46:01;;;;;;;12.03;10.70;;;;;;;2.56;100.00;100729.47;5058925;28;20182;-75
2023/12/07 09:48:27;;;;;;;12.03;10.20;;;;;;;2.55;100.00;100725.19;5061284;28;20205;-75
2023/12/07 09:50:55;;;;;;;12.37;11.07;;;;;;;2.56;100.00;100724.38;5063394;28;20276;-76
2023/12/07 09:53:20;;;;;;;11.50;10.30;;;;;;;2.54;100.00;100729.44;5060115;28;20230;-75
2023/12/07 09:55:46;;;;;;;11.53;10.43;;;;;;;2.61;100.00;100714.28;5061904;28;20591;-76
2023/12/07 09:58:12;;;;;;;13.83;11.03;;;;;;;2.59;100.00;100719.34;5062238;28;20221;-74
2023/12/07 10:00:37;;;;;;;14.30;11.93;;;;;;;2.55;100.00;100707.28;5060685;28;20194;-75
2023/12/07 10:03:07;;;;;;;11.73;10.53;;;;;;;2.59;100.00;100711.69;5062986;28;20578;-75
2023/12/07 10:05:33;;;;;;;12.17;10.83;;;;;;;2.60;100.00;100708.31;5062213;28;20853;-76
2023/12/07 10:07:58;;;;;;;12.17;10.97;;;;;;;2.62;100.00;100709.22;5062646;28;20285;-76
2023/12/07 10:10:24;;;;;;;12.20;11.00;;;;;;;2.76;100.00;100708.78;5063014;28;20182;-76
2023/12/07 10:12:53;;;;;;;12.27;10.93;;;;;;;2.71;100.00;100706.94;5061142;28;20205;-74
2023/12/07 10:15:20;;;;;;;12.00;10.77;;;;;;;2.68;100.00;100708.53;5057609;28;20197;-75
2023/12/07 10:17:53;;;;;;;12.40;11.10;;;;;;;2.79;100.00;100699.50;5059570;28;20202;-75
2023/12/07 10:20:24;;;;;;;12.30;11.00;;;;;;;2.80;100.00;100700.38;5062829;28;20251;-75
2023/12/07 10:23:09;;;;;;;11.97;10.77;;;;;;;2.91;100.00;100701.56;5058675;28;20229;-77
2023/12/07 10:25:40;;;;;;;11.07;9.97;;;;;;;2.95;100.00;100698.25;5060407;28;20206;-75
2023/12/07 10:28:07;;;;;;;11.93;10.20;;;;;;;3.04;100.00;100692.53;5060029;28;20649;-75
2023/12/07 10:30:33;;;;;;;11.97;10.77;;;;;;;3.10;100.00;100682.47;5060524;28;20196;-77
2023/12/07 10:32:59;;;;;;;12.20;10.87;;;;;;;3.13;100.00;100681.69;5057192;28;20205;-75
2023/12/07 10:35:25;;;;;;;14.50;12.17;;;;;;;3.15;100.00;100674.94;5061486;28;20710;-75
2023/12/07 10:37:51;;;;;;;14.63;13.00;;;;;;;3.22;100.00;100678.53;5059456;28;20205;-75
2023/12/07 10:40:16;;;;;;;13.63;12.23;;;;;;;3.24;100.00;100670.09;5059118;28;20898;-75
2023/12/07 10:42:47;;;;;;;13.77;12.43;;;;;;;3.33;100.00;100661.75;5060749;28;20578;-74
2023/12/07 10:45:15;;;;;;;15.13;13.23;;;;;;;3.33;100.00;100652.41;5061789;28;20719;-76
2023/12/07 10:47:43;;;;;;;14.63;13.13;;;;;;;3.28;100.00;100650.56;5061824;28;20227;-75
2023/12/07 10:50:13;;;;;;;15.17;13.57;;;;;;;3.28;100.00;100656.53;5058089;28;20242;-76
2023/12/07 10:53:08;;;;;;;16.17;14.43;;;;;;;3.33;100.00;100636.19;5056583;28;20300;-75
2023/12/07 10:55:43;;;;;;;14.70;13.30;;;;;;;3.42;100.00;100630.44;5053597;28;20189;-74
2023/12/07 10:58:10;;;;;;;15.20;13.60;;;;;;;3.42;100.00;100631.31;5060627;28;20743;-74
2023/12/07 11:00:36;;;;;;;15.40;13.77;;;;;;;3.56;100.00;100621.41;5061312;28;20516;-76
2023/12/07 11:03:03;;;;;;;14.07;12.37;;;;;;;3.56;100.00;100626.53;5058595;28;20270;-76
2023/12/07 11:05:30;;;;;;;14.23;12.27;;;;;;;3.63;100.00;100613.09;5060621;28;20297;-75
2023/12/07 11:08:07;;;;;;;12.83;11.63;;;;;;;3.72;100.00;100599.66;5061452;28;20245;-76
2023/12/07 11:11:11;;;;;;;13.13;11.73;;;;;;;3.71;100.00;100595.34;5061640;28;20185;-75
2023/12/07 11:13:37;;;;;;;16.47;12.27;;;;;;;3.72;100.00;100596.19;5058243;28;20691;-74
2023/12/07 11:16:04;;;;;;;13.13;11.63;;;;;;;3.79;100.00;100582.75;5058943;28;20194;-76
2023/12/07 11:18:29;;;;;;;13.50;12.10;;;;;;;3.87;100.00;100573.53;5053537;28;20678;-75